createdAt,value
2022-10-26T00:00:55.108Z,1009.31
2022-10-26T00:01:55.304Z,1009.37
2022-10-26T00:02:55.260Z,1009.32
2022-10-26T00:03:55.185Z,1009.31
2022-10-26T00:04:55.214Z,1009.30
2022-10-26T00:05:55.241Z,1009.29
2022-10-26T00:06:55.268Z,1009.30
2022-10-26T00:07:55.294Z,1009.28
2022-10-26T00:08:55.321Z,1009.30
2022-10-26T00:09:55.346Z,1009.29
2022-10-26T00:10:55.375Z,1009.26
2022-10-26T00:11:55.397Z,1009.28
2022-10-26T00:12:55.446Z,1009.28
2022-10-26T00:13:55.452Z,1009.24
2022-10-26T00:14:55.480Z,1009.24
2022-10-26T00:15:55.568Z,1009.19
2022-10-26T00:16:55.533Z,1009.18
2022-10-26T00:17:55.558Z,1009.18
2022-10-26T00:18:55.586Z,1009.18
2022-10-26T00:19:55.610Z,1009.16
2022-10-26T00:20:55.639Z,1009.14
2022-10-26T00:21:55.665Z,1009.09
2022-10-26T00:22:55.691Z,1009.11
2022-10-26T00:23:55.716Z,1009.18
2022-10-26T00:24:55.749Z,1009.13
2022-10-26T00:25:55.770Z,1009.15
2022-10-26T00:26:55.797Z,1009.14
2022-10-26T00:27:55.823Z,1009.15
2022-10-26T00:28:55.881Z,1009.16
2022-10-26T00:29:55.877Z,1009.15
2022-10-26T00:30:55.904Z,1009.13
2022-10-26T00:31:55.933Z,1009.17
2022-10-26T00:32:55.958Z,1009.14
2022-10-26T00:33:55.986Z,1009.13
2022-10-26T00:34:56.009Z,1009.19
2022-10-26T00:35:56.038Z,1009.19
2022-10-26T00:36:56.063Z,1009.21
2022-10-26T00:37:56.095Z,1009.21
2022-10-26T00:38:56.117Z,1009.19
2022-10-26T00:39:56.146Z,1009.22
2022-10-26T00:41:56.198Z,1009.22
2022-10-26T00:42:56.222Z,1009.23
2022-10-26T00:43:56.252Z,1009.25
2022-10-26T00:44:56.295Z,1009.30
2022-10-26T00:45:56.304Z,1009.28
2022-10-26T00:46:56.329Z,1009.33
2022-10-26T00:47:56.358Z,1009.32
2022-10-26T00:48:56.385Z,1009.32
2022-10-26T00:49:56.413Z,1009.30
2022-10-26T00:50:56.437Z,1009.31
2022-10-26T00:51:56.464Z,1009.25
2022-10-26T00:52:56.489Z,1009.22
2022-10-26T00:53:56.519Z,1009.21
2022-10-26T00:54:56.542Z,1009.16
2022-10-26T00:55:56.571Z,1009.17
2022-10-26T00:56:56.597Z,1009.17
2022-10-26T00:57:56.625Z,1009.25
2022-10-26T00:58:56.650Z,1009.18
2022-10-26T00:59:56.679Z,1009.17
2022-10-26T01:00:56.725Z,1009.22
2022-10-26T01:01:56.732Z,1009.17
2022-10-26T01:02:56.755Z,1009.20
2022-10-26T01:03:56.911Z,1009.20
2022-10-26T01:04:56.809Z,1009.18
2022-10-26T01:05:56.838Z,1009.17
2022-10-26T01:06:56.863Z,1009.16
2022-10-26T01:07:56.894Z,1009.15
2022-10-26T01:08:56.917Z,1009.15
2022-10-26T01:09:56.947Z,1009.13
2022-10-26T01:10:56.971Z,1009.08
2022-10-26T01:11:57.000Z,1009.06
2022-10-26T01:12:57.025Z,1009.02
2022-10-26T01:13:57.054Z,1009.06
2022-10-26T01:14:57.076Z,1009.00
2022-10-26T01:15:57.104Z,1009.01
2022-10-26T01:16:57.223Z,1009.05
2022-10-26T01:17:57.159Z,1008.99
2022-10-26T01:18:57.183Z,1008.98
2022-10-26T01:19:57.212Z,1008.94
2022-10-26T01:20:57.237Z,1008.92
2022-10-26T01:21:57.265Z,1008.97
2022-10-26T01:22:57.289Z,1008.96
2022-10-26T01:23:57.317Z,1008.88
2022-10-26T01:24:57.344Z,1008.89
2022-10-26T01:25:57.373Z,1008.85
2022-10-26T01:26:57.400Z,1008.81
2022-10-26T01:27:57.429Z,1008.82
2022-10-26T01:28:57.449Z,1008.75
2022-10-26T01:29:57.479Z,1008.79
2022-10-26T01:30:57.504Z,1008.77
2022-10-26T01:31:57.532Z,1008.75
2022-10-26T01:32:57.591Z,1008.77
2022-10-26T01:33:57.586Z,1008.79
2022-10-26T01:34:57.613Z,1008.79
2022-10-26T01:35:57.639Z,1008.76
2022-10-26T01:36:57.668Z,1008.74
2022-10-26T01:37:57.692Z,1008.73
2022-10-26T01:38:57.717Z,1008.74
2022-10-26T01:39:57.747Z,1008.78
2022-10-26T01:40:57.770Z,1008.79
2022-10-26T01:41:57.799Z,1008.72
2022-10-26T01:42:57.824Z,1008.71
2022-10-26T01:43:57.852Z,1008.69
2022-10-26T01:44:57.886Z,1008.72
2022-10-26T01:45:57.908Z,1008.67
2022-10-26T01:46:57.931Z,1008.71
2022-10-26T01:47:58.037Z,1008.65
2022-10-26T01:48:58.001Z,1008.64
2022-10-26T01:49:58.013Z,1008.61
2022-10-26T01:50:58.037Z,1008.62
2022-10-26T01:51:58.066Z,1008.57
2022-10-26T01:52:58.093Z,1008.61
2022-10-26T01:53:58.120Z,1008.58
2022-10-26T01:54:58.145Z,1008.58
2022-10-26T01:55:58.175Z,1008.60
2022-10-26T01:56:58.197Z,1008.56
2022-10-26T01:57:58.227Z,1008.50
2022-10-26T01:58:58.254Z,1008.55
2022-10-26T01:59:58.279Z,1008.55
2022-10-26T02:00:58.304Z,1008.49
2022-10-26T02:01:58.334Z,1008.55
2022-10-26T02:02:58.357Z,1008.52
2022-10-26T02:03:58.419Z,1008.49
2022-10-26T02:04:58.436Z,1008.51
2022-10-26T02:05:58.441Z,1008.41
2022-10-26T02:06:58.467Z,1008.48
2022-10-26T02:07:58.494Z,1008.44
2022-10-26T02:08:58.519Z,1008.45
2022-10-26T02:09:58.548Z,1008.49
2022-10-26T02:10:58.572Z,1008.48
2022-10-26T02:11:58.602Z,1008.45
2022-10-26T02:12:58.625Z,1008.48
2022-10-26T02:13:58.655Z,1008.47
2022-10-26T02:14:58.681Z,1008.47
2022-10-26T02:15:58.709Z,1008.44
2022-10-26T02:16:58.761Z,1008.50
2022-10-26T02:17:58.763Z,1008.47
2022-10-26T02:18:58.787Z,1008.44
2022-10-26T02:19:58.816Z,1008.46
2022-10-26T02:20:58.862Z,1008.45
2022-10-26T02:21:58.870Z,1008.45
2022-10-26T02:22:58.894Z,1008.48
2022-10-26T02:23:59.020Z,1008.46
2022-10-26T02:24:58.949Z,1008.48
2022-10-26T02:25:58.976Z,1008.46
2022-10-26T02:26:59.008Z,1008.45
2022-10-26T02:27:59.035Z,1008.43
2022-10-26T02:28:59.057Z,1008.43
2022-10-26T02:29:59.090Z,1008.40
2022-10-26T02:30:59.115Z,1008.42
2022-10-26T02:31:59.139Z,1008.40
2022-10-26T02:32:59.164Z,1008.41
2022-10-26T02:33:59.191Z,1008.39
2022-10-26T02:34:59.216Z,1008.39
2022-10-26T02:35:59.245Z,1008.38
2022-10-26T02:36:59.291Z,1008.35
2022-10-26T02:37:59.305Z,1008.32
2022-10-26T02:38:59.325Z,1008.30
2022-10-26T02:39:59.352Z,1008.30
2022-10-26T02:40:59.378Z,1008.29
2022-10-26T02:41:59.408Z,1008.28
2022-10-26T02:42:59.432Z,1008.27
2022-10-26T02:43:59.460Z,1008.28
2022-10-26T02:44:59.487Z,1008.31
2022-10-26T02:45:59.516Z,1008.25
2022-10-26T02:46:59.540Z,1008.27
2022-10-26T02:47:59.567Z,1008.27
2022-10-26T02:48:59.594Z,1008.25
2022-10-26T02:49:59.622Z,1008.26
2022-10-26T02:50:59.647Z,1008.25
2022-10-26T02:51:59.675Z,1008.22
2022-10-26T02:52:59.720Z,1008.24
2022-10-26T02:53:59.733Z,1008.25
2022-10-26T02:54:59.754Z,1008.26
2022-10-26T02:55:59.782Z,1008.31
2022-10-26T02:56:59.809Z,1008.29
2022-10-26T02:57:59.838Z,1008.27
2022-10-26T02:58:59.863Z,1008.29
2022-10-26T02:59:59.962Z,1008.32
2022-10-26T03:00:59.919Z,1008.27
2022-10-26T03:01:59.946Z,1008.30
2022-10-26T03:02:59.971Z,1008.26
2022-10-26T03:04:00.056Z,1008.28
2022-10-26T03:05:00.025Z,1008.26
2022-10-26T03:06:00.053Z,1008.26
2022-10-26T03:07:00.087Z,1008.20
2022-10-26T03:08:00.107Z,1008.20
2022-10-26T03:09:00.156Z,1008.24
2022-10-26T03:10:00.161Z,1008.21
2022-10-26T03:11:00.185Z,1008.21
2022-10-26T03:12:00.214Z,1008.17
2022-10-26T03:13:00.241Z,1008.20
2022-10-26T03:14:00.271Z,1008.20
2022-10-26T03:15:00.294Z,1008.16
2022-10-26T03:16:00.323Z,1008.15
2022-10-26T03:17:00.349Z,1008.18
2022-10-26T03:18:00.397Z,1008.18
2022-10-26T03:19:03.631Z,1008.15
2022-10-26T03:20:00.437Z,1008.18
2022-10-26T03:21:00.465Z,1008.17
2022-10-26T03:22:00.485Z,1008.19
2022-10-26T03:23:00.509Z,1008.18
2022-10-26T03:24:00.538Z,1008.16
2022-10-26T03:25:00.655Z,1008.14
2022-10-26T03:26:00.593Z,1008.09
2022-10-26T03:27:02.291Z,1008.19
2022-10-26T03:28:00.647Z,1008.13
2022-10-26T03:29:00.672Z,1008.16
2022-10-26T03:30:00.706Z,1008.13
2022-10-26T03:31:00.728Z,1008.17
2022-10-26T03:32:00.754Z,1008.19
2022-10-26T03:33:00.780Z,1008.23
2022-10-26T03:34:00.809Z,1008.23
2022-10-26T03:35:00.836Z,1008.23
2022-10-26T03:36:00.862Z,1008.24
2022-10-26T03:37:00.889Z,1008.28
2022-10-26T03:38:00.918Z,1008.23
2022-10-26T03:39:00.940Z,1008.22
2022-10-26T03:40:00.969Z,1008.17
2022-10-26T03:41:01.014Z,1008.20
2022-10-26T03:42:01.024Z,1008.18
2022-10-26T03:43:01.049Z,1008.19
2022-10-26T03:44:01.078Z,1008.17
2022-10-26T03:45:01.120Z,1008.23
2022-10-26T03:46:01.133Z,1008.22
2022-10-26T03:47:01.155Z,1008.16
2022-10-26T03:48:01.186Z,1008.15
2022-10-26T03:49:01.213Z,1008.16
2022-10-26T03:50:01.286Z,1008.16
2022-10-26T03:51:01.264Z,1008.19
2022-10-26T03:52:01.294Z,1008.15
2022-10-26T03:53:01.318Z,1008.16
2022-10-26T03:54:01.346Z,1008.19
2022-10-26T03:55:01.372Z,1008.16
2022-10-26T03:56:01.404Z,1008.17
2022-10-26T03:57:01.445Z,1008.13
2022-10-26T03:58:01.456Z,1008.10
2022-10-26T03:59:01.480Z,1008.11
2022-10-26T04:00:01.510Z,1008.10
2022-10-26T04:01:01.541Z,1008.12
2022-10-26T04:02:01.605Z,1008.13
2022-10-26T04:03:01.588Z,1008.17
2022-10-26T04:04:01.745Z,1008.16
2022-10-26T04:05:01.646Z,1008.13
2022-10-26T04:06:01.677Z,1008.17
2022-10-26T04:07:01.697Z,1008.18
2022-10-26T04:08:01.727Z,1008.19
2022-10-26T04:09:01.759Z,1008.19
2022-10-26T04:10:01.781Z,1008.16
2022-10-26T04:11:03.941Z,1008.19
2022-10-26T04:12:01.835Z,1008.16
2022-10-26T04:13:01.913Z,1008.19
2022-10-26T04:14:01.888Z,1008.21
2022-10-26T04:16:01.944Z,1008.19
2022-10-26T04:17:01.967Z,1008.19
2022-10-26T04:18:02.014Z,1008.21
2022-10-26T04:19:02.022Z,1008.23
2022-10-26T04:20:02.051Z,1008.22
2022-10-26T04:21:02.080Z,1008.27
2022-10-26T04:22:02.108Z,1008.30
2022-10-26T04:23:02.142Z,1008.28
2022-10-26T04:24:02.160Z,1008.24
2022-10-26T04:25:02.188Z,1008.25
2022-10-26T04:26:02.214Z,1008.26
2022-10-26T04:27:02.243Z,1008.25
2022-10-26T04:28:02.268Z,1008.18
2022-10-26T04:29:02.315Z,1008.23
2022-10-26T04:30:02.327Z,1008.23
2022-10-26T04:31:02.348Z,1008.23
2022-10-26T04:32:02.378Z,1008.20
2022-10-26T04:33:02.404Z,1008.19
2022-10-26T04:34:02.456Z,1008.20
2022-10-26T04:35:02.459Z,1008.19
2022-10-26T04:36:02.487Z,1008.20
2022-10-26T04:37:02.513Z,1008.14
2022-10-26T04:38:02.542Z,1008.21
2022-10-26T04:39:02.565Z,1008.25
2022-10-26T04:40:02.642Z,1008.21
2022-10-26T04:41:02.620Z,1008.24
2022-10-26T04:42:02.650Z,1008.23
2022-10-26T04:43:02.675Z,1008.29
2022-10-26T04:44:02.712Z,1008.25
2022-10-26T04:45:02.749Z,1008.27
2022-10-26T04:46:02.760Z,1008.26
2022-10-26T04:47:02.935Z,1008.23
2022-10-26T04:48:02.912Z,1008.23
2022-10-26T04:49:02.892Z,1008.24
2022-10-26T04:50:02.918Z,1008.29
2022-10-26T04:51:02.896Z,1008.20
2022-10-26T04:52:02.921Z,1008.21
2022-10-26T04:53:02.950Z,1008.22
2022-10-26T04:54:02.976Z,1008.19
2022-10-26T04:55:03.012Z,1008.21
2022-10-26T04:56:03.030Z,1008.20
2022-10-26T04:57:03.060Z,1008.14
2022-10-26T04:58:03.135Z,1008.21
2022-10-26T04:59:03.113Z,1008.19
2022-10-26T05:00:03.148Z,1008.17
2022-10-26T05:01:03.352Z,1008.14
2022-10-26T05:02:03.444Z,1008.16
2022-10-26T05:03:03.224Z,1008.23
2022-10-26T05:04:03.250Z,1008.12
2022-10-26T05:06:03.303Z,1008.16
2022-10-26T05:07:03.331Z,1008.11
2022-10-26T05:08:03.357Z,1008.09
2022-10-26T05:09:03.385Z,1008.11
2022-10-26T05:10:03.412Z,1008.13
2022-10-26T05:11:03.440Z,1008.09
2022-10-26T05:12:03.465Z,1008.11
2022-10-26T05:13:03.500Z,1008.12
2022-10-26T05:14:03.529Z,1008.12
2022-10-26T05:15:06.355Z,1008.10
2022-10-26T05:16:03.576Z,1008.07
2022-10-26T05:17:03.621Z,1008.06
2022-10-26T05:18:03.632Z,1008.01
2022-10-26T05:19:03.662Z,1008.01
2022-10-26T05:20:03.684Z,1008.07
2022-10-26T05:21:03.715Z,1007.98
2022-10-26T05:22:03.741Z,1007.95
2022-10-26T05:23:03.768Z,1007.95
2022-10-26T05:24:04.585Z,1007.97
2022-10-26T05:25:03.822Z,1007.93
2022-10-26T05:26:03.849Z,1007.91
2022-10-26T05:27:03.876Z,1007.97
2022-10-26T05:28:03.903Z,1007.97
2022-10-26T05:29:03.937Z,1007.94
2022-10-26T05:30:04.014Z,1007.96
2022-10-26T05:31:03.987Z,1008.00
2022-10-26T05:32:04.017Z,1008.02
2022-10-26T05:33:04.063Z,1008.01
2022-10-26T05:34:04.067Z,1008.02
2022-10-26T05:35:04.095Z,1007.99
2022-10-26T05:36:04.122Z,1007.97
2022-10-26T05:37:04.152Z,1007.94
2022-10-26T05:38:04.178Z,1008.00
2022-10-26T05:39:04.206Z,1007.98
2022-10-26T05:40:04.232Z,1008.04
2022-10-26T05:41:04.262Z,1008.06
2022-10-26T05:42:04.287Z,1008.05
2022-10-26T05:43:04.316Z,1008.07
2022-10-26T05:44:04.342Z,1008.10
2022-10-26T05:45:04.373Z,1008.08
2022-10-26T05:46:04.463Z,1008.08
2022-10-26T05:47:04.426Z,1008.10
2022-10-26T05:48:04.452Z,1008.10
2022-10-26T05:49:04.500Z,1008.07
2022-10-26T05:50:04.507Z,1008.10
2022-10-26T05:51:04.535Z,1008.12
2022-10-26T05:52:04.563Z,1008.16
2022-10-26T05:53:04.591Z,1008.12
2022-10-26T05:54:04.617Z,1008.10
2022-10-26T05:55:04.690Z,1008.13
2022-10-26T05:56:06.173Z,1008.12
2022-10-26T05:57:04.701Z,1008.17
2022-10-26T05:58:04.730Z,1008.14
2022-10-26T05:59:04.755Z,1008.16
2022-10-26T06:00:04.781Z,1008.16
2022-10-26T06:01:04.868Z,1008.19
2022-10-26T06:02:04.922Z,1008.23
2022-10-26T06:03:04.866Z,1008.29
2022-10-26T06:04:04.891Z,1008.32
2022-10-26T06:05:04.946Z,1008.40
2022-10-26T06:06:06.709Z,1008.39
2022-10-26T06:07:04.977Z,1008.38
2022-10-26T06:08:05.001Z,1008.34
2022-10-26T06:09:05.033Z,1008.37
2022-10-26T06:10:05.057Z,1008.37
2022-10-26T06:11:05.086Z,1008.36
2022-10-26T06:12:05.121Z,1008.38
2022-10-26T06:13:05.141Z,1008.42
2022-10-26T06:14:05.167Z,1008.50
2022-10-26T06:15:05.196Z,1008.55
2022-10-26T06:16:05.222Z,1008.62
2022-10-26T06:17:05.251Z,1008.52
2022-10-26T06:18:05.286Z,1008.55
2022-10-26T06:19:05.307Z,1008.55
2022-10-26T06:20:05.372Z,1008.48
2022-10-26T06:21:05.420Z,1008.47
2022-10-26T06:22:05.387Z,1008.49
2022-10-26T06:23:05.414Z,1008.51
2022-10-26T06:24:05.443Z,1008.51
2022-10-26T06:25:05.473Z,1008.55
2022-10-26T06:26:05.497Z,1008.53
2022-10-26T06:27:05.527Z,1008.60
2022-10-26T06:28:05.553Z,1008.55
2022-10-26T06:29:05.582Z,1008.61
2022-10-26T06:30:05.608Z,1008.61
2022-10-26T06:31:05.634Z,1008.59
2022-10-26T06:32:05.661Z,1008.61
2022-10-26T06:33:18.488Z,1008.54
2022-10-26T06:34:05.716Z,1008.57
2022-10-26T06:35:07.214Z,1008.57
2022-10-26T06:36:05.774Z,1008.59
2022-10-26T06:37:05.823Z,1008.66
2022-10-26T06:38:05.830Z,1008.62
2022-10-26T06:39:05.862Z,1008.70
2022-10-26T06:40:05.883Z,1008.75
2022-10-26T06:41:05.912Z,1008.83
2022-10-26T06:42:05.938Z,1008.85
2022-10-26T06:43:05.971Z,1008.83
2022-10-26T06:44:05.992Z,1008.82
2022-10-26T06:45:06.048Z,1008.85
2022-10-26T06:46:06.049Z,1008.85
2022-10-26T06:47:06.081Z,1008.83
2022-10-26T06:48:06.103Z,1008.80
2022-10-26T06:49:06.131Z,1008.81
2022-10-26T06:50:06.160Z,1008.79
2022-10-26T06:51:06.186Z,1008.82
2022-10-26T06:52:06.212Z,1008.84
2022-10-26T06:53:06.267Z,1008.83
2022-10-26T06:54:06.269Z,1008.82
2022-10-26T06:55:06.296Z,1008.86
2022-10-26T06:56:06.324Z,1008.85
2022-10-26T06:57:06.351Z,1008.85
2022-10-26T06:58:06.380Z,1008.82
2022-10-26T06:59:07.109Z,1008.81
2022-10-26T07:00:06.435Z,1008.80
2022-10-26T07:01:06.508Z,1008.78
2022-10-26T07:02:06.843Z,1008.81
2022-10-26T07:03:06.594Z,1008.77
2022-10-26T07:04:06.544Z,1008.73
2022-10-26T07:05:06.572Z,1008.71
2022-10-26T07:06:06.647Z,1008.66
2022-10-26T07:07:06.627Z,1008.70
2022-10-26T07:08:06.651Z,1008.69
2022-10-26T07:09:06.704Z,1008.70
2022-10-26T07:10:06.708Z,1008.74
2022-10-26T07:11:06.745Z,1008.75
2022-10-26T07:12:06.763Z,1008.82
2022-10-26T07:13:06.791Z,1008.78
2022-10-26T07:14:06.818Z,1008.81
2022-10-26T07:15:06.845Z,1008.80
2022-10-26T07:16:06.873Z,1008.85
2022-10-26T07:17:06.902Z,1008.89
2022-10-26T07:18:06.926Z,1008.89
2022-10-26T07:19:06.953Z,1008.93
2022-10-26T07:20:06.985Z,1008.92
2022-10-26T07:21:07.008Z,1008.87
2022-10-26T07:22:07.035Z,1008.95
2022-10-26T07:23:07.067Z,1008.95
2022-10-26T07:24:07.089Z,1008.96
2022-10-26T07:25:07.139Z,1008.96
2022-10-26T07:26:07.144Z,1008.97
2022-10-26T07:27:07.171Z,1008.96
2022-10-26T07:28:07.198Z,1009.00
2022-10-26T07:29:07.226Z,1008.98
2022-10-26T07:30:07.257Z,1008.93
2022-10-26T07:31:07.285Z,1008.93
2022-10-26T07:32:07.305Z,1008.94
2022-10-26T07:33:07.341Z,1009.00
2022-10-26T07:34:07.361Z,1008.97
2022-10-26T07:35:07.392Z,1008.99
2022-10-26T07:36:07.415Z,1008.96
2022-10-26T07:37:07.444Z,1008.98
2022-10-26T07:38:07.474Z,1008.98
2022-10-26T07:39:07.499Z,1009.02
2022-10-26T07:40:07.700Z,1009.08
2022-10-26T07:41:07.574Z,1009.13
2022-10-26T07:42:07.581Z,1009.14
2022-10-26T07:43:07.609Z,1009.18
2022-10-26T07:44:07.635Z,1009.20
2022-10-26T07:45:07.664Z,1009.20
2022-10-26T07:46:07.689Z,1009.25
2022-10-26T07:47:07.719Z,1009.25
2022-10-26T07:48:07.745Z,1009.22
2022-10-26T07:49:07.774Z,1009.19
2022-10-26T07:50:07.799Z,1009.15
2022-10-26T07:51:07.828Z,1009.06
2022-10-26T07:52:07.855Z,1009.09
2022-10-26T07:53:07.881Z,1009.09
2022-10-26T07:54:07.911Z,1009.02
2022-10-26T07:55:07.937Z,1009.04
2022-10-26T07:56:07.962Z,1009.05
2022-10-26T07:57:08.038Z,1009.06
2022-10-26T07:58:08.020Z,1009.07
2022-10-26T07:59:08.049Z,1009.11
2022-10-26T08:00:08.073Z,1009.08
2022-10-26T08:01:08.285Z,1009.09
2022-10-26T08:02:08.211Z,1009.04
2022-10-26T08:03:08.157Z,1009.02
2022-10-26T08:04:08.187Z,1009.12
2022-10-26T08:05:08.214Z,1009.07
2022-10-26T08:06:08.242Z,1009.10
2022-10-26T08:07:08.272Z,1009.09
2022-10-26T08:08:08.295Z,1009.09
2022-10-26T08:09:08.324Z,1009.08
2022-10-26T08:10:08.353Z,1009.16
2022-10-26T08:11:08.378Z,1009.13
2022-10-26T08:12:08.404Z,1009.12
2022-10-26T08:13:08.453Z,1009.11
2022-10-26T08:14:08.461Z,1009.09
2022-10-26T08:15:08.488Z,1009.08
2022-10-26T08:16:08.515Z,1009.07
2022-10-26T08:17:08.547Z,1009.06
2022-10-26T08:18:08.571Z,1009.12
2022-10-26T08:19:08.597Z,1009.18
2022-10-26T08:20:08.627Z,1009.16
2022-10-26T08:21:13.537Z,1009.19
2022-10-26T08:22:08.706Z,1009.19
2022-10-26T08:23:08.713Z,1009.24
2022-10-26T08:24:08.739Z,1009.22
2022-10-26T08:25:08.765Z,1009.24
2022-10-26T08:26:08.792Z,1009.26
2022-10-26T08:27:08.824Z,1009.25
2022-10-26T08:28:08.848Z,1009.26
2022-10-26T08:29:08.901Z,1009.29
2022-10-26T08:30:08.902Z,1009.26
2022-10-26T08:31:08.933Z,1009.28
2022-10-26T08:32:08.959Z,1009.29
2022-10-26T08:33:08.989Z,1009.25
2022-10-26T08:34:09.015Z,1009.25
2022-10-26T08:35:09.048Z,1009.23
2022-10-26T08:36:09.068Z,1009.16
2022-10-26T08:37:09.098Z,1009.18
2022-10-26T08:38:09.125Z,1009.16
2022-10-26T08:39:09.154Z,1009.21
2022-10-26T08:40:09.181Z,1009.25
2022-10-26T08:41:09.215Z,1009.36
2022-10-26T08:42:09.240Z,1009.35
2022-10-26T08:43:09.265Z,1009.38
2022-10-26T08:44:09.297Z,1009.40
2022-10-26T08:45:09.340Z,1009.40
2022-10-26T08:46:09.364Z,1009.37
2022-10-26T08:47:09.411Z,1009.42
2022-10-26T08:48:09.402Z,1009.46
2022-10-26T08:49:09.433Z,1009.48
2022-10-26T08:50:09.463Z,1009.45
2022-10-26T08:51:12.173Z,1009.46
2022-10-26T08:52:09.519Z,1009.45
2022-10-26T08:53:09.545Z,1009.47
2022-10-26T08:54:09.576Z,1009.42
2022-10-26T08:55:09.600Z,1009.42
2022-10-26T08:56:09.634Z,1009.37
2022-10-26T08:57:09.657Z,1009.35
2022-10-26T08:58:09.689Z,1009.37
2022-10-26T08:59:09.714Z,1009.38
2022-10-26T09:00:09.747Z,1009.34
2022-10-26T09:01:09.930Z,1009.38
2022-10-26T09:02:09.803Z,1009.39
2022-10-26T09:03:09.830Z,1009.46
2022-10-26T09:04:09.858Z,1009.44
2022-10-26T09:05:09.889Z,1009.47
2022-10-26T09:06:09.918Z,1009.48
2022-10-26T09:07:09.944Z,1009.49
2022-10-26T09:08:09.973Z,1009.53
2022-10-26T09:09:10.004Z,1009.51
2022-10-26T09:10:10.030Z,1009.50
2022-10-26T09:11:10.061Z,1009.42
2022-10-26T09:12:10.088Z,1009.38
2022-10-26T09:13:10.120Z,1009.33
2022-10-26T09:14:10.145Z,1009.22
2022-10-26T09:15:10.175Z,1009.27
2022-10-26T09:16:10.203Z,1009.33
2022-10-26T09:17:10.303Z,1009.23
2022-10-26T09:18:10.263Z,1009.28
2022-10-26T09:19:10.291Z,1009.32
2022-10-26T09:20:10.318Z,1009.31
2022-10-26T09:21:10.349Z,1009.35
2022-10-26T09:22:10.396Z,1009.43
2022-10-26T09:23:10.408Z,1009.51
2022-10-26T09:24:10.435Z,1009.53
2022-10-26T09:25:10.467Z,1009.52
2022-10-26T09:26:10.493Z,1009.61
2022-10-26T09:27:10.524Z,1009.61
2022-10-26T09:28:10.550Z,1009.64
2022-10-26T09:29:10.580Z,1009.68
2022-10-26T09:30:10.609Z,1009.69
2022-10-26T09:31:10.639Z,1009.70
2022-10-26T09:32:10.669Z,1009.81
2022-10-26T09:33:10.716Z,1009.82
2022-10-26T09:34:10.724Z,1009.86
2022-10-26T09:35:10.755Z,1009.89
2022-10-26T09:36:13.277Z,1010.01
2022-10-26T09:37:10.815Z,1009.86
2022-10-26T09:38:10.842Z,1009.89
2022-10-26T09:39:10.871Z,1009.88
2022-10-26T09:40:10.900Z,1009.91
2022-10-26T09:41:10.932Z,1009.90
2022-10-26T09:42:10.961Z,1009.92
2022-10-26T09:43:10.989Z,1010.06
2022-10-26T09:44:11.016Z,1010.08
2022-10-26T09:45:11.048Z,1010.03
2022-10-26T09:46:11.074Z,1010.06
2022-10-26T09:47:11.104Z,1010.05
2022-10-26T09:48:11.132Z,1010.10
2022-10-26T09:49:11.189Z,1010.10
2022-10-26T09:50:11.191Z,1010.05
2022-10-26T09:51:11.222Z,1010.09
2022-10-26T09:53:11.286Z,1010.11
2022-10-26T09:54:11.307Z,1010.12
2022-10-26T09:55:11.339Z,1010.15
2022-10-26T09:56:11.365Z,1010.17
2022-10-26T09:57:11.396Z,1010.21
2022-10-26T09:58:11.424Z,1010.18
2022-10-26T09:59:11.454Z,1010.15
2022-10-26T10:00:11.482Z,1010.20
2022-10-26T10:01:11.552Z,1010.19
2022-10-26T10:02:11.541Z,1010.16
2022-10-26T10:03:11.622Z,1010.18
2022-10-26T10:04:11.598Z,1010.19
2022-10-26T10:05:16.428Z,1010.18
2022-10-26T10:06:11.656Z,1010.22
2022-10-26T10:07:11.734Z,1010.28
2022-10-26T10:08:11.715Z,1010.31
2022-10-26T10:09:11.774Z,1010.28
2022-10-26T10:10:11.776Z,1010.28
2022-10-26T10:11:11.804Z,1010.30
2022-10-26T10:12:11.832Z,1010.31
2022-10-26T10:13:11.864Z,1010.30
2022-10-26T10:14:11.891Z,1010.31
2022-10-26T10:15:11.921Z,1010.34
2022-10-26T10:16:11.949Z,1010.30
2022-10-26T10:17:11.991Z,1010.32
2022-10-26T10:18:12.008Z,1010.31
2022-10-26T10:19:12.039Z,1010.32
2022-10-26T10:20:12.066Z,1010.35
2022-10-26T10:21:12.121Z,1010.41
2022-10-26T10:22:12.126Z,1010.37
2022-10-26T10:23:12.154Z,1010.36
2022-10-26T10:24:12.184Z,1010.45
2022-10-26T10:25:12.214Z,1010.46
2022-10-26T10:26:12.245Z,1010.46
2022-10-26T10:27:12.279Z,1010.46
2022-10-26T10:28:12.356Z,1010.48
2022-10-26T10:29:12.332Z,1010.47
2022-10-26T10:30:12.360Z,1010.52
2022-10-26T10:31:12.428Z,1010.56
2022-10-26T10:32:12.419Z,1010.60
2022-10-26T10:33:12.450Z,1010.60
2022-10-26T10:34:12.479Z,1010.63
2022-10-26T10:35:12.507Z,1010.61
2022-10-26T10:36:12.536Z,1010.61
2022-10-26T10:37:12.596Z,1010.63
2022-10-26T10:38:12.596Z,1010.64
2022-10-26T10:39:12.627Z,1010.67
2022-10-26T10:40:14.275Z,1010.64
2022-10-26T10:41:12.685Z,1010.71
2022-10-26T10:42:12.713Z,1010.65
2022-10-26T10:43:12.743Z,1010.62
2022-10-26T10:44:12.772Z,1010.67
2022-10-26T10:45:12.804Z,1010.68
2022-10-26T10:46:12.840Z,1010.70
2022-10-26T10:47:12.862Z,1010.71
2022-10-26T10:48:12.898Z,1010.73
2022-10-26T10:49:12.921Z,1010.76
2022-10-26T10:50:12.949Z,1010.74
2022-10-26T10:51:12.982Z,1010.77
2022-10-26T10:52:13.010Z,1010.76
2022-10-26T10:53:13.158Z,1010.80
2022-10-26T10:54:13.067Z,1010.78
2022-10-26T10:55:13.097Z,1010.83
2022-10-26T10:56:13.125Z,1010.79
2022-10-26T10:57:13.156Z,1010.80
2022-10-26T10:58:13.186Z,1010.85
2022-10-26T10:59:13.213Z,1010.87
2022-10-26T11:00:13.247Z,1010.91
2022-10-26T11:01:13.429Z,1010.92
2022-10-26T11:02:13.532Z,1010.91
2022-10-26T11:03:13.333Z,1010.90
2022-10-26T11:05:13.394Z,1010.96
2022-10-26T11:06:13.424Z,1010.93
2022-10-26T11:07:13.453Z,1010.96
2022-10-26T11:08:13.482Z,1010.97
2022-10-26T11:09:13.532Z,1010.97
2022-10-26T11:10:13.539Z,1010.94
2022-10-26T11:11:13.573Z,1010.98
2022-10-26T11:12:13.599Z,1010.94
2022-10-26T11:13:13.632Z,1010.91
2022-10-26T11:14:13.661Z,1010.94
2022-10-26T11:15:13.698Z,1010.96
2022-10-26T11:16:13.719Z,1010.98
2022-10-26T11:17:13.749Z,1010.98
2022-10-26T11:18:13.778Z,1010.95
2022-10-26T11:19:13.810Z,1010.90
2022-10-26T11:20:15.019Z,1010.92
2022-10-26T11:21:13.870Z,1010.93
2022-10-26T11:22:13.899Z,1010.92
2022-10-26T11:23:13.929Z,1010.97
2022-10-26T11:24:13.956Z,1010.95
2022-10-26T11:25:14.008Z,1010.95
2022-10-26T11:26:14.018Z,1010.98
2022-10-26T11:27:14.048Z,1011.05
2022-10-26T11:28:14.076Z,1010.98
2022-10-26T11:29:14.170Z,1010.99
2022-10-26T11:30:14.291Z,1011.02
2022-10-26T11:31:14.166Z,1011.03
2022-10-26T11:32:14.197Z,1010.94
2022-10-26T11:33:14.226Z,1010.95
2022-10-26T11:34:14.255Z,1010.96
2022-10-26T11:35:14.287Z,1011.04
2022-10-26T11:36:17.219Z,1011.03
2022-10-26T11:37:14.347Z,1011.05
2022-10-26T11:38:16.100Z,1011.03
2022-10-26T11:39:14.409Z,1010.95
2022-10-26T11:40:14.460Z,1011.10
2022-10-26T11:41:14.488Z,1011.03
2022-10-26T11:42:14.500Z,1010.96
2022-10-26T11:43:14.527Z,1010.98
2022-10-26T11:44:14.556Z,1011.12
2022-10-26T11:45:14.588Z,1011.13
2022-10-26T11:46:16.698Z,1011.03
2022-10-26T11:47:14.648Z,1011.06
2022-10-26T11:48:14.678Z,1011.08
2022-10-26T11:49:14.709Z,1011.03
2022-10-26T11:50:17.349Z,1010.96
2022-10-26T11:51:14.768Z,1010.92
2022-10-26T11:52:14.800Z,1010.87
2022-10-26T11:53:14.829Z,1011.02
2022-10-26T11:54:14.893Z,1010.97
2022-10-26T11:55:14.890Z,1010.90
2022-10-26T11:56:14.918Z,1010.91
2022-10-26T11:57:14.978Z,1011.03
2022-10-26T11:58:14.990Z,1011.06
2022-10-26T11:59:15.015Z,1010.94
2022-10-26T12:00:15.056Z,1010.88
2022-10-26T12:01:15.169Z,1010.92
2022-10-26T12:02:15.102Z,1010.96
2022-10-26T12:03:15.135Z,1010.99
2022-10-26T12:04:15.166Z,1011.00
2022-10-26T12:05:15.195Z,1010.94
2022-10-26T12:06:15.224Z,1010.91
2022-10-26T12:07:15.254Z,1010.92
2022-10-26T12:08:15.284Z,1010.86
2022-10-26T12:09:15.316Z,1010.90
2022-10-26T12:10:15.345Z,1010.91
2022-10-26T12:11:15.376Z,1010.93